sensor_id;sensor_type;location;lat;lon;timestamp;temperature;humidity
5196;DHT22;2617;51.006;12.436;2022-08-03T00:04:10;17.50;99.90
5196;DHT22;2617;51.006;12.436;2022-08-03T00:09:13;17.40;99.90
5196;DHT22;2617;51.006;12.436;2022-08-03T00:14:15;17.40;99.90
5196;DHT22;2617;51.006;12.436;2022-08-03T00:19:18;17.40;99.90
5196;DHT22;2617;51.006;12.436;2022-08-03T00:24:20;17.30;99.90
5196;DHT22;2617;51.006;12.436;2022-08-03T00:29:23;17.20;99.90
5196;DHT22;2617;51.006;12.436;2022-08-03T00:34:26;17.00;99.90
5196;DHT22;2617;51.006;12.436;2022-08-03T00:39:28;17.00;99.90
5196;DHT22;2617;51.006;12.436;2022-08-03T00:44:31;16.90;99.90
5196;DHT22;2617;51.006;12.436;2022-08-03T00:49:33;16.80;99.90
5196;DHT22;2617;51.006;12.436;2022-08-03T00:54:37;16.80;99.90
5196;DHT22;2617;51.006;12.436;2022-08-03T00:59:39;16.70;99.90
5196;DHT22;2617;51.006;12.436;2022-08-03T01:04:42;16.60;99.90
5196;DHT22;2617;51.006;12.436;2022-08-03T01:09:54;16.60;99.90
5196;DHT22;2617;51.006;12.436;2022-08-03T01:15:14;16.50;99.90
5196;DHT22;2617;51.006;12.436;2022-08-03T01:20:17;16.40;99.90
5196;DHT22;2617;51.006;12.436;2022-08-03T01:25:39;16.40;99.90
5196;DHT22;2617;51.006;12.436;2022-08-03T01:30:58;16.20;99.90
5196;DHT22;2617;51.006;12.436;2022-08-03T01:36:01;16.10;99.90
5196;DHT22;2617;51.006;12.436;2022-08-03T01:41:04;16.10;99.90
5196;DHT22;2617;51.006;12.436;2022-08-03T01:46:06;16.10;99.90
5196;DHT22;2617;51.006;12.436;2022-08-03T01:51:09;16.10;99.90
5196;DHT22;2617;51.006;12.436;2022-08-03T01:56:12;16.20;99.90
5196;DHT22;2617;51.006;12.436;2022-08-03T02:01:14;16.20;99.90
5196;DHT22;2617;51.006;12.436;2022-08-03T02:06:17;16.20;99.90
5196;DHT22;2617;51.006;12.436;2022-08-03T02:11:20;16.10;99.90
5196;DHT22;2617;51.006;12.436;2022-08-03T02:16:23;16.10;99.90
5196;DHT22;2617;51.006;12.436;2022-08-03T02:21:27;15.90;99.90
5196;DHT22;2617;51.006;12.436;2022-08-03T02:26:29;15.90;99.90
5196;DHT22;2617;51.006;12.436;2022-08-03T02:31:32;15.80;99.90
5196;DHT22;2617;51.006;12.436;2022-08-03T02:36:34;15.70;99.90
5196;DHT22;2617;51.006;12.436;2022-08-03T02:41:41;15.60;99.90
5196;DHT22;2617;51.006;12.436;2022-08-03T02:46:44;15.60;99.90
5196;DHT22;2617;51.006;12.436;2022-08-03T02:51:45;15.60;99.90
5196;DHT22;2617;51.006;12.436;2022-08-03T02:56:48;15.60;99.90
5196;DHT22;2617;51.006;12.436;2022-08-03T03:01:52;15.60;99.90
5196;DHT22;2617;51.006;12.436;2022-08-03T03:06:55;15.50;99.90
5196;DHT22;2617;51.006;12.436;2022-08-03T03:11:57;15.50;99.90
5196;DHT22;2617;51.006;12.436;2022-08-03T03:17:00;15.50;99.90
5196;DHT22;2617;51.006;12.436;2022-08-03T03:22:02;15.50;99.90
5196;DHT22;2617;51.006;12.436;2022-08-03T03:27:05;15.50;99.90
5196;DHT22;2617;51.006;12.436;2022-08-03T03:32:07;15.50;99.90
5196;DHT22;2617;51.006;12.436;2022-08-03T03:37:10;15.50;99.90
5196;DHT22;2617;51.006;12.436;2022-08-03T03:42:12;15.50;99.90
5196;DHT22;2617;51.006;12.436;2022-08-03T03:47:15;15.50;99.90
5196;DHT22;2617;51.006;12.436;2022-08-03T03:52:17;15.60;99.90
5196;DHT22;2617;51.006;12.436;2022-08-03T03:57:20;15.90;99.90
5196;DHT22;2617;51.006;12.436;2022-08-03T04:02:24;16.10;99.90
5196;DHT22;2617;51.006;12.436;2022-08-03T04:07:26;16.00;99.90
5196;DHT22;2617;51.006;12.436;2022-08-03T04:12:34;16.10;99.90
5196;DHT22;2617;51.006;12.436;2022-08-03T04:17:36;16.40;99.90
5196;DHT22;2617;51.006;12.436;2022-08-03T04:22:39;18.30;99.90
5196;DHT22;2617;51.006;12.436;2022-08-03T04:27:42;22.40;99.90
5196;DHT22;2617;51.006;12.436;2022-08-03T04:32:45;23.80;99.90
5196;DHT22;2617;51.006;12.436;2022-08-03T04:37:48;23.80;99.90
5196;DHT22;2617;51.006;12.436;2022-08-03T04:42:52;25.80;95.00
5196;DHT22;2617;51.006;12.436;2022-08-03T04:47:54;25.70;95.00
5196;DHT22;2617;51.006;12.436;2022-08-03T04:52:57;27.20;91.50
5196;DHT22;2617;51.006;12.436;2022-08-03T04:58:00;27.20;91.50
5196;DHT22;2617;51.006;12.436;2022-08-03T05:03:02;27.90;90.10
5196;DHT22;2617;51.006;12.436;2022-08-03T05:08:05;28.50;86.30
5196;DHT22;2617;51.006;12.436;2022-08-03T05:13:07;28.40;86.40
5196;DHT22;2617;51.006;12.436;2022-08-03T05:18:12;28.50;86.20
5196;DHT22;2617;51.006;12.436;2022-08-03T05:23:14;28.50;86.10
5196;DHT22;2617;51.006;12.436;2022-08-03T05:28:16;28.40;86.00
5196;DHT22;2617;51.006;12.436;2022-08-03T05:33:19;27.90;87.30
5196;DHT22;2617;51.006;12.436;2022-08-03T05:38:21;27.20;90.00
5196;DHT22;2617;51.006;12.436;2022-08-03T05:43:24;26.30;91.90
5196;DHT22;2617;51.006;12.436;2022-08-03T05:48:27;24.30;96.10
5196;DHT22;2617;51.006;12.436;2022-08-03T05:53:32;24.30;96.10
5196;DHT22;2617;51.006;12.436;2022-08-03T05:58:34;23.50;98.50
5196;DHT22;2617;51.006;12.436;2022-08-03T06:03:36;23.10;99.90
5196;DHT22;2617;51.006;12.436;2022-08-03T06:08:39;22.70;99.90
5196;DHT22;2617;51.006;12.436;2022-08-03T06:13:42;22.70;99.90
5196;DHT22;2617;51.006;12.436;2022-08-03T06:18:45;22.80;99.90
5196;DHT22;2617;51.006;12.436;2022-08-03T06:23:48;22.80;99.90
5196;DHT22;2617;51.006;12.436;2022-08-03T06:28:50;23.00;99.90
5196;DHT22;2617;51.006;12.436;2022-08-03T06:33:53;23.20;99.90
5196;DHT22;2617;51.006;12.436;2022-08-03T06:38:56;23.80;99.90
5196;DHT22;2617;51.006;12.436;2022-08-03T06:43:58;23.70;99.90
5196;DHT22;2617;51.006;12.436;2022-08-03T06:49:01;24.00;99.90
5196;DHT22;2617;51.006;12.436;2022-08-03T06:54:04;24.60;99.90
5196;DHT22;2617;51.006;12.436;2022-08-03T06:59:06;24.50;99.90
5196;DHT22;2617;51.006;12.436;2022-08-03T07:04:09;24.80;99.70
5196;DHT22;2617;51.006;12.436;2022-08-03T07:09:11;25.00;99.20
5196;DHT22;2617;51.006;12.436;2022-08-03T07:14:14;25.30;98.90
5196;DHT22;2617;51.006;12.436;2022-08-03T07:19:16;25.60;98.50
5196;DHT22;2617;51.006;12.436;2022-08-03T07:24:18;26.00;98.60
5196;DHT22;2617;51.006;12.436;2022-08-03T07:29:21;26.30;96.50
5196;DHT22;2617;51.006;12.436;2022-08-03T07:34:23;26.50;95.20
5196;DHT22;2617;51.006;12.436;2022-08-03T07:39:27;26.90;94.40
5196;DHT22;2617;51.006;12.436;2022-08-03T07:44:29;26.90;94.30
5196;DHT22;2617;51.006;12.436;2022-08-03T07:49:32;27.50;93.80
5196;DHT22;2617;51.006;12.436;2022-08-03T07:54:35;27.40;93.70
5196;DHT22;2617;51.006;12.436;2022-08-03T07:59:38;27.90;90.10
5196;DHT22;2617;51.006;12.436;2022-08-03T08:04:40;27.90;90.00
5196;DHT22;2617;51.006;12.436;2022-08-03T08:09:43;28.10;88.00
5196;DHT22;2617;51.006;12.436;2022-08-03T08:14:45;28.30;87.60
5196;DHT22;2617;51.006;12.436;2022-08-03T08:19:48;28.50;84.00
5196;DHT22;2617;51.006;12.436;2022-08-03T08:24:50;28.70;80.70
5196;DHT22;2617;51.006;12.436;2022-08-03T08:29:52;28.90;73.00
5196;DHT22;2617;51.006;12.436;2022-08-03T08:34:56;29.30;74.80
5196;DHT22;2617;51.006;12.436;2022-08-03T08:39:58;29.30;74.80
5196;DHT22;2617;51.006;12.436;2022-08-03T08:45:01;29.60;76.00
5196;DHT22;2617;51.006;12.436;2022-08-03T08:50:04;29.80;74.10
5196;DHT22;2617;51.006;12.436;2022-08-03T08:55:08;30.00;72.00
5196;DHT22;2617;51.006;12.436;2022-08-03T09:00:13;30.10;65.50
5196;DHT22;2617;51.006;12.436;2022-08-03T09:05:16;30.20;66.20
5196;DHT22;2617;51.006;12.436;2022-08-03T09:10:18;30.30;63.60
5196;DHT22;2617;51.006;12.436;2022-08-03T09:15:24;30.40;66.80
5196;DHT22;2617;51.006;12.436;2022-08-03T09:20:27;30.40;65.10
5196;DHT22;2617;51.006;12.436;2022-08-03T09:25:32;30.50;66.10
5196;DHT22;2617;51.006;12.436;2022-08-03T09:30:35;30.80;62.80
5196;DHT22;2617;51.006;12.436;2022-08-03T09:35:42;30.80;62.80
5196;DHT22;2617;51.006;12.436;2022-08-03T09:40:44;30.60;64.00
5196;DHT22;2617;51.006;12.436;2022-08-03T09:45:47;30.70;62.90
5196;DHT22;2617;51.006;12.436;2022-08-03T09:50:52;30.80;62.20
5196;DHT22;2617;51.006;12.436;2022-08-03T09:56:00;31.40;59.80
5196;DHT22;2617;51.006;12.436;2022-08-03T10:01:03;31.40;59.80
5196;DHT22;2617;51.006;12.436;2022-08-03T10:06:14;31.10;61.30
5196;DHT22;2617;51.006;12.436;2022-08-03T10:16:35;31.20;57.20
5196;DHT22;2617;51.006;12.436;2022-08-03T10:21:37;31.30;58.80
5196;DHT22;2617;51.006;12.436;2022-08-03T10:26:39;31.70;57.50
5196;DHT22;2617;51.006;12.436;2022-08-03T10:31:43;32.10;57.10
5196;DHT22;2617;51.006;12.436;2022-08-03T10:36:44;32.30;57.00
5196;DHT22;2617;51.006;12.436;2022-08-03T10:41:46;32.50;55.10
5196;DHT22;2617;51.006;12.436;2022-08-03T10:46:50;32.50;54.30
5196;DHT22;2617;51.006;12.436;2022-08-03T10:51:52;32.50;54.30
5196;DHT22;2617;51.006;12.436;2022-08-03T10:56:55;32.70;54.50
5196;DHT22;2617;51.006;12.436;2022-08-03T11:02:03;32.60;53.80
5196;DHT22;2617;51.006;12.436;2022-08-03T11:12:34;32.60;54.20
5196;DHT22;2617;51.006;12.436;2022-08-03T11:17:37;33.00;52.90
5196;DHT22;2617;51.006;12.436;2022-08-03T11:22:47;33.00;52.80
5196;DHT22;2617;51.006;12.436;2022-08-03T11:27:49;33.30;50.80
5196;DHT22;2617;51.006;12.436;2022-08-03T11:32:52;33.60;50.50
5196;DHT22;2617;51.006;12.436;2022-08-03T11:38:02;33.40;51.60
5196;DHT22;2617;51.006;12.436;2022-08-03T11:48:48;33.60;51.40
5196;DHT22;2617;51.006;12.436;2022-08-03T11:53:54;33.60;51.40
5196;DHT22;2617;51.006;12.436;2022-08-03T11:58:57;34.00;47.10
5196;DHT22;2617;51.006;12.436;2022-08-03T12:04:02;34.00;47.10
5196;DHT22;2617;51.006;12.436;2022-08-03T12:09:14;34.20;46.90
5196;DHT22;2617;51.006;12.436;2022-08-03T12:14:07;34.20;47.60
5196;DHT22;2617;51.006;12.436;2022-08-03T12:19:10;34.40;46.00
5196;DHT22;2617;51.006;12.436;2022-08-03T12:24:12;34.50;45.40
5196;DHT22;2617;51.006;12.436;2022-08-03T12:29:17;34.40;46.00
5196;DHT22;2617;51.006;12.436;2022-08-03T12:34:20;34.40;46.00
5196;DHT22;2617;51.006;12.436;2022-08-03T12:39:22;34.60;44.80
5196;DHT22;2617;51.006;12.436;2022-08-03T12:44:29;34.70;44.70
5196;DHT22;2617;51.006;12.436;2022-08-03T12:54:55;34.70;45.00
5196;DHT22;2617;51.006;12.436;2022-08-03T12:59:58;34.50;42.40
5196;DHT22;2617;51.006;12.436;2022-08-03T13:05:08;34.00;43.20
5196;DHT22;2617;51.006;12.436;2022-08-03T13:10:05;33.80;43.80
5196;DHT22;2617;51.006;12.436;2022-08-03T13:15:08;33.80;43.80
5196;DHT22;2617;51.006;12.436;2022-08-03T13:20:10;34.30;43.90
5196;DHT22;2617;51.006;12.436;2022-08-03T13:25:13;34.10;43.30
5196;DHT22;2617;51.006;12.436;2022-08-03T13:30:15;33.90;42.20
5196;DHT22;2617;51.006;12.436;2022-08-03T13:35:18;34.00;44.70
5196;DHT22;2617;51.006;12.436;2022-08-03T13:40:21;34.00;44.70
5196;DHT22;2617;51.006;12.436;2022-08-03T13:45:24;34.50;43.80
5196;DHT22;2617;51.006;12.436;2022-08-03T13:50:27;34.40;43.00
5196;DHT22;2617;51.006;12.436;2022-08-03T13:55:29;34.70;43.30
5196;DHT22;2617;51.006;12.436;2022-08-03T14:00:32;34.80;41.50
5196;DHT22;2617;51.006;12.436;2022-08-03T14:05:35;34.00;43.20
5196;DHT22;2617;51.006;12.436;2022-08-03T14:10:38;34.00;43.20
5196;DHT22;2617;51.006;12.436;2022-08-03T14:15:40;34.20;43.90
5196;DHT22;2617;51.006;12.436;2022-08-03T14:20:43;34.50;42.20
5196;DHT22;2617;51.006;12.436;2022-08-03T14:25:46;34.30;42.70
5196;DHT22;2617;51.006;12.436;2022-08-03T14:30:49;34.30;42.70
5196;DHT22;2617;51.006;12.436;2022-08-03T14:35:51;34.20;43.10
5196;DHT22;2617;51.006;12.436;2022-08-03T14:40:54;34.70;42.70
5196;DHT22;2617;51.006;12.436;2022-08-03T14:45:56;34.70;42.60
5196;DHT22;2617;51.006;12.436;2022-08-03T14:50:59;35.00;42.90
5196;DHT22;2617;51.006;12.436;2022-08-03T14:56:03;35.30;41.60
5196;DHT22;2617;51.006;12.436;2022-08-03T15:01:05;35.00;42.80
5196;DHT22;2617;51.006;12.436;2022-08-03T15:06:08;34.90;41.30
5196;DHT22;2617;51.006;12.436;2022-08-03T15:11:11;34.80;41.10
5196;DHT22;2617;51.006;12.436;2022-08-03T15:16:13;34.30;42.50
5196;DHT22;2617;51.006;12.436;2022-08-03T15:21:16;34.20;43.80
5196;DHT22;2617;51.006;12.436;2022-08-03T15:26:18;34.10;43.60
5196;DHT22;2617;51.006;12.436;2022-08-03T15:31:21;34.00;43.70
5196;DHT22;2617;51.006;12.436;2022-08-03T15:36:23;34.10;43.00
5196;DHT22;2617;51.006;12.436;2022-08-03T15:41:26;33.80;43.50
5196;DHT22;2617;51.006;12.436;2022-08-03T15:46:28;33.30;44.60
5196;DHT22;2617;51.006;12.436;2022-08-03T15:51:32;32.90;45.10
5196;DHT22;2617;51.006;12.436;2022-08-03T15:56:34;32.90;45.00
5196;DHT22;2617;51.006;12.436;2022-08-03T16:01:37;32.90;45.00
5196;DHT22;2617;51.006;12.436;2022-08-03T16:06:39;32.60;45.20
5196;DHT22;2617;51.006;12.436;2022-08-03T16:11:41;32.70;45.90
5196;DHT22;2617;51.006;12.436;2022-08-03T16:16:44;32.80;46.00
5196;DHT22;2617;51.006;12.436;2022-08-03T16:21:46;32.80;45.40
5196;DHT22;2617;51.006;12.436;2022-08-03T16:26:49;32.80;45.30
5196;DHT22;2617;51.006;12.436;2022-08-03T16:31:51;32.80;45.70
5196;DHT22;2617;51.006;12.436;2022-08-03T16:36:54;32.80;46.40
5196;DHT22;2617;51.006;12.436;2022-08-03T16:41:56;32.80;45.60
5196;DHT22;2617;51.006;12.436;2022-08-03T16:46:59;32.40;46.10
5196;DHT22;2617;51.006;12.436;2022-08-03T16:52:02;31.90;48.00
5196;DHT22;2617;51.006;12.436;2022-08-03T16:57:05;31.80;47.60
5196;DHT22;2617;51.006;12.436;2022-08-03T17:02:07;31.90;47.70
5196;DHT22;2617;51.006;12.436;2022-08-03T17:07:10;32.10;48.10
5196;DHT22;2617;51.006;12.436;2022-08-03T17:12:13;32.20;47.70
5196;DHT22;2617;51.006;12.436;2022-08-03T17:17:20;31.90;47.40
5196;DHT22;2617;51.006;12.436;2022-08-03T17:22:18;31.70;47.30
5196;DHT22;2617;51.006;12.436;2022-08-03T17:27:23;31.60;47.30
5196;DHT22;2617;51.006;12.436;2022-08-03T17:32:26;31.40;47.40
5196;DHT22;2617;51.006;12.436;2022-08-03T17:37:29;31.30;48.90
5196;DHT22;2617;51.006;12.436;2022-08-03T17:42:32;31.30;48.90
5196;DHT22;2617;51.006;12.436;2022-08-03T17:47:35;31.20;49.50
5196;DHT22;2617;51.006;12.436;2022-08-03T17:52:40;31.10;49.10
5196;DHT22;2617;51.006;12.436;2022-08-03T17:57:47;31.00;48.60
5196;DHT22;2617;51.006;12.436;2022-08-03T18:03:07;30.70;49.50
5196;DHT22;2617;51.006;12.436;2022-08-03T18:08:18;30.40;50.00
5196;DHT22;2617;51.006;12.436;2022-08-03T18:13:44;30.40;49.90
5196;DHT22;2617;51.006;12.436;2022-08-03T18:18:45;30.40;49.90
5196;DHT22;2617;51.006;12.436;2022-08-03T18:23:49;29.60;51.10
5196;DHT22;2617;51.006;12.436;2022-08-03T18:28:51;29.60;51.00
5196;DHT22;2617;51.006;12.436;2022-08-03T18:33:54;29.20;51.80
5196;DHT22;2617;51.006;12.436;2022-08-03T18:38:57;29.00;52.30
5196;DHT22;2617;51.006;12.436;2022-08-03T18:44:00;28.50;53.20
5196;DHT22;2617;51.006;12.436;2022-08-03T18:54:14;28.40;53.80
5196;DHT22;2617;51.006;12.436;2022-08-03T18:59:24;28.20;54.20
5196;DHT22;2617;51.006;12.436;2022-08-03T19:04:33;27.90;55.10
5196;DHT22;2617;51.006;12.436;2022-08-03T19:09:52;27.70;57.00
5196;DHT22;2617;51.006;12.436;2022-08-03T19:15:03;27.40;58.40
5196;DHT22;2617;51.006;12.436;2022-08-03T19:20:09;26.80;60.90
5196;DHT22;2617;51.006;12.436;2022-08-03T19:25:12;26.60;62.20
5196;DHT22;2617;51.006;12.436;2022-08-03T19:30:16;26.50;62.00
5196;DHT22;2617;51.006;12.436;2022-08-03T19:35:23;26.20;64.00
5196;DHT22;2617;51.006;12.436;2022-08-03T19:40:27;25.90;65.00
5196;DHT22;2617;51.006;12.436;2022-08-03T19:45:32;25.90;65.00
5196;DHT22;2617;51.006;12.436;2022-08-03T19:50:34;25.70;66.00
5196;DHT22;2617;51.006;12.436;2022-08-03T19:55:38;25.50;67.00
5196;DHT22;2617;51.006;12.436;2022-08-03T20:00:39;25.30;68.30
5196;DHT22;2617;51.006;12.436;2022-08-03T20:05:42;25.10;69.30
5196;DHT22;2617;51.006;12.436;2022-08-03T20:10:44;25.00;70.10
5196;DHT22;2617;51.006;12.436;2022-08-03T20:15:47;24.90;70.20
5196;DHT22;2617;51.006;12.436;2022-08-03T20:20:50;24.50;74.40
5196;DHT22;2617;51.006;12.436;2022-08-03T20:25:54;24.40;74.30
5196;DHT22;2617;51.006;12.436;2022-08-03T20:30:57;24.10;76.40
5196;DHT22;2617;51.006;12.436;2022-08-03T20:36:00;24.00;77.40
5196;DHT22;2617;51.006;12.436;2022-08-03T20:41:02;24.00;77.30
5196;DHT22;2617;51.006;12.436;2022-08-03T20:46:05;23.90;78.40
5196;DHT22;2617;51.006;12.436;2022-08-03T20:51:08;23.60;81.60
5196;DHT22;2617;51.006;12.436;2022-08-03T20:56:11;23.40;81.20
5196;DHT22;2617;51.006;12.436;2022-08-03T21:01:15;23.30;82.60
5196;DHT22;2617;51.006;12.436;2022-08-03T21:06:18;23.10;88.20
5196;DHT22;2617;51.006;12.436;2022-08-03T21:11:20;23.10;88.20
5196;DHT22;2617;51.006;12.436;2022-08-03T21:16:23;22.90;85.60
5196;DHT22;2617;51.006;12.436;2022-08-03T21:21:27;22.80;84.40
5196;DHT22;2617;51.006;12.436;2022-08-03T21:26:28;22.80;84.90
5196;DHT22;2617;51.006;12.436;2022-08-03T21:31:31;22.60;91.70
5196;DHT22;2617;51.006;12.436;2022-08-03T21:36:34;22.50;91.60
5196;DHT22;2617;51.006;12.436;2022-08-03T21:41:37;22.40;93.40
5196;DHT22;2617;51.006;12.436;2022-08-03T21:46:39;22.20;95.00
5196;DHT22;2617;51.006;12.436;2022-08-03T21:51:41;22.10;96.10
5196;DHT22;2617;51.006;12.436;2022-08-03T21:56:43;21.90;96.70
5196;DHT22;2617;51.006;12.436;2022-08-03T22:01:47;21.80;97.30
5196;DHT22;2617;51.006;12.436;2022-08-03T22:06:48;21.80;97.80
5196;DHT22;2617;51.006;12.436;2022-08-03T22:11:51;21.70;98.60
5196;DHT22;2617;51.006;12.436;2022-08-03T22:16:53;21.70;99.10
5196;DHT22;2617;51.006;12.436;2022-08-03T22:21:56;21.60;99.70
5196;DHT22;2617;51.006;12.436;2022-08-03T22:26:59;21.40;99.90
5196;DHT22;2617;51.006;12.436;2022-08-03T22:32:06;21.30;99.90
5196;DHT22;2617;51.006;12.436;2022-08-03T22:37:10;21.10;99.90
5196;DHT22;2617;51.006;12.436;2022-08-03T22:42:12;21.10;99.90
5196;DHT22;2617;51.006;12.436;2022-08-03T22:47:14;21.00;99.90
5196;DHT22;2617;51.006;12.436;2022-08-03T22:52:17;20.90;99.90
5196;DHT22;2617;51.006;12.436;2022-08-03T22:57:19;20.80;99.90
5196;DHT22;2617;51.006;12.436;2022-08-03T23:02:22;20.70;99.90
5196;DHT22;2617;51.006;12.436;2022-08-03T23:07:27;20.50;99.90
5196;DHT22;2617;51.006;12.436;2022-08-03T23:12:29;20.50;99.90
5196;DHT22;2617;51.006;12.436;2022-08-03T23:17:32;20.30;99.90
5196;DHT22;2617;51.006;12.436;2022-08-03T23:22:37;20.30;99.90
5196;DHT22;2617;51.006;12.436;2022-08-03T23:27:38;20.30;99.90
5196;DHT22;2617;51.006;12.436;2022-08-03T23:32:41;20.20;99.90
5196;DHT22;2617;51.006;12.436;2022-08-03T23:37:45;20.00;99.90
5196;DHT22;2617;51.006;12.436;2022-08-03T23:42:47;20.00;99.90
5196;DHT22;2617;51.006;12.436;2022-08-03T23:47:49;19.90;99.90
5196;DHT22;2617;51.006;12.436;2022-08-03T23:53:00;19.70;99.90
5196;DHT22;2617;51.006;12.436;2022-08-03T23:58:13;19.50;99.90
